EPMOEPPO

Guest
Details From EPMO - MODLIN
To EPPO - LAWICA
Flight Number -
Tags generated
Created
Modified
Stats Distance 140 nm / 260 km
Max Altitude 12,800 ft / 3,901 m
Waypoints 3
Social Downloads 0
Likes 0
Share VATSIM

Download

Looking for another format? Having issues loading an existing format? Contact us
Advertisement - Login to hide

Notes

Basic altitude profile: - Ascent Rate: 2500ft/min - Ascent Speed: 250kts - Cruise Altitude: 35000ft - Cruise Speed: 420kts - Descent Rate: 1500ft/min - Descent Speed: 250kts Options: - Use NATs: yes - Use PACOTS: yes - Use low airways: yes - Use high airways: yes

Route

EPMO DODEK EPPO

ID Type Via Altitude Latitude Longitude Leg Dist Tot Dist Heading (true) Name
O EPMO APT - 0 ft / 0 m 52.45111˚ 20.65178˚ - 0 nm - MODLIN
DODEK FIX - 12,800 ft / 3,901 m 52.39028˚ 19.67167˚ 36 nm 36 nm 265° / 264° -
O EPPO APT - 0 ft / 0 m 52.42157˚ 16.82355˚ 104 nm 140 nm 272° / 270° LAWICA

Altitude Profile

Advertisement - Login to hide

EPMO

Details ICAO EPMO (WMI)
Name MODLIN
Region Poland
Timezone Europe/Warsaw (UTC+1.0)
Stats Elevation 341 ft / 104 m (AMSL)
Location 52.451110° 20.651778°
Runways 1
Magnetic Variation 5.766° E

METAR

EPMO 131830Z 16006KT CAVOK M01/M02 Q1010

Decode

TAF

TAF EPMO 131730Z 1318/1418 17010KT CAVOK BECMG 1404/1406 17015G28KT BKN014 TEMPO 1406/1410 2000 SN SNRA BKN005 BECMG 1409/1412 23010KT TEMPO 1410/1412 4000 RA RASN BR BKN007

Decode

Departure Runways

ID Width Length Bearing (true) Bearing (mag) Surface Threshold Offset Overrun Length
08 197 ft / 60 m 8,188 ft / 2,496 m 81.96° 76.19° Asphalt 0 ft / 0 m 0 ft / 0 m
26 197 ft / 60 m 8,188 ft / 2,496 m 261.99° 256.22° Asphalt 0 ft / 0 m 0 ft / 0 m

EPPO

Details ICAO EPPO (POZ)
Name LAWICA
Region Poland
Timezone Europe/Warsaw (UTC+1.0)
Stats Elevation 308 ft / 94 m (AMSL)
Location 52.421566° 16.823549°
Runways 1
Magnetic Variation 4.735° E

METAR

EPPO 131830Z 16013KT CAVOK 01/M03 Q1005 R10/15//95

Decode

TAF

TAF EPPO 131730Z 1318/1418 18010KT CAVOK PROB40 TEMPO 1321/1403 16015G25KT -SN BECMG 1402/1404 BKN013 PROB40 TEMPO 1403/1407 18018G35KT 2000 SNRA RA BKN004 OVC013 PROB30 TEMPO 1407/1412 21015G25KT SHRA BKN015CB BECMG 1412/1414 24015G30KT PROB40 TEMPO 1412/1418 4000 SHRA BKN015CB

Decode

Destination Runways

ID Width Length Bearing (true) Bearing (mag) Surface Threshold Offset Overrun Length
11 164 ft / 50 m 8,153 ft / 2,485 m 107.57° 102.83° Asphalt 0 ft / 0 m 0 ft / 0 m
29 164 ft / 50 m 8,153 ft / 2,485 m 287.59° 282.85° Asphalt 0 ft / 0 m 0 ft / 0 m

Approach Navaids

Runway Type Ident Frequency Range Bearing (true) Bearing (mag) Slope Elevation
29 Localiser POZ 110.30 MHz 18 nm / 33 km 287.57° 282.83° - 308 ft / 94 m (AMSL)
29 Glidescope POZ 110.30 MHz 10 nm / 19 km 287.58° 282.84° 3.00° 308 ft / 94 m (AMSL)
29 DME POZ 110.30 MHz 18 nm / 33 km - - - 331 ft / 101 m (AMSL)

Popular Alternatives